CYLL

Lloydminster Airport

Lloydminster, Alberta, Canada
METAR CYLL 190300Z 28013KT 15SM FEW170 00/M03 A2931 RMK AC2 SLP956
Observed Flight Rules
Jan-19 @ 03:00 UTC (49 minutes ago) Visual Flight Rules
Wind Visibility Clouds
280° at 13 knots 15 miles
  • Few at 17,000' AGL
Temperatures Readings
Current 0°C / 32°F
Dewpoint -3°C / 27°F
Humidity 80%
Altimeter 29.31" Hg
Pressure 995.6 hPa
Elevation 669
METAR CYLL 190300Z 28013KT 15SM FEW170 00/M03 A2931 RMK AC2 SLP956
Observed Flight Rules
Jan-19 @ 03:00 UTC
(49 minutes ago)
VFR
Wind Visibility
280° at 13 knots 15 miles
Clouds
  • Few at 17,000' AGL
Temperature Dewpoint
0°C / 32°F -3°C / 27°F
Humidity Altimeter Pressure
80% 29.31" Hg 995.6 hPa